Impacts TAF Board
For situational awareness. Not to be used for flight planning purposes.
IDs:

KATL - Atlanta/Hartsfield I, GA, US

Issued at 0521 UTC 22 Oct 2021
Updated at 0606 UTC 22 Oct 2021
Potential Impact None Slight Moderate High
Time0552Z 22/07Z 22/08Z 22/09Z 22/10Z 22/11Z 22/12Z 22/13Z 22/14Z 22/15Z 22/16Z 22/17Z 22/18Z 22/19Z>>
Type OBS PRVL
  [TEMP]  
PRVL
  [TEMP]  
PRVL PRVL PRVL PRVL PRVL PRVL PRVL PRVL PRVL PRVL PRVL
VIS 10 >6
  [6]  
>6
  [6]  
>6 >6 >6 >6 >6 >6 >6 >6 >6 >6 >6
CIG 48 12
  [8]  
12
  [8]  
15 15 15 -- -- -- -- -- -- -- --
Cover BKN BKN
  [BKN]  
BKN
  [BKN]  
BKN BKN BKN SCT SCT SCT FEW FEW FEW FEW FEW
FltCat VFR MVFR
  [IFR]  
MVFR
  [IFR]  
MVFR MVFR MVFR VFR VFR VFR VFR VFR VFR VFR VFR
WX -- VCSH
  [BR]  
VCSH
  [BR]  
-- -- -- -- -- -- -- -- -- -- --
WDir 270 250
[250]
250
[250]
290 290 290 300 300 300 290 290 290 290 290
WSpd 7 6
  [6]  
6
  [6]  
5 5 5 6 6 6 9 9 9 9 9
WGst -- --
  [--]  
--
  [--]  
-- -- -- -- -- -- -- -- -- -- --
Raw TAF
KATL 220521Z 2206/2312 26012G20KT 4SM -TSRA BR SCT008 BKN020CB
  FM220700 25006KT P6SM VCSH SCT008 BKN012
  TEMPO 2207/2209 6SM BR BKN008
  FM220900 29005KT P6SM BKN015
  FM221200 30006KT P6SM SCT015 SCT060
  FM221500 29009KT P6SM FEW250
  FM230200 31005KT P6SM SKC


Raw METAR
KATL 220552Z 27007KT 10SM FEW008 BKN048 BKN060 BKN250 18/17 A3004 RMK AO2 RAE44 TSB0456E35 SLP167 TS DSIPTD P0018 60018 T01830167 10200 20183 58006
KATL 220536Z 26008KT 3SM -RA BR FEW008 BKN045 BKN060 OVC250 19/17 A3004 RMK AO2 TSB0456E35 TS DSIPTD P0018 T01890167
KATL 220520Z 26008G21KT 5SM -TSRA BR SCT008 SCT040CB BKN060 OVC200 19/17 A3005 RMK AO2 TSB0456 OCNL LTGICCGCA ALQDS TS ALQDS MOV E P0011 T01890172
KATL 220514Z 27012G21KT 2 1/2SM -TSRA BR SCT008 SCT040CB BKN060 OVC200 19/17 A3005 RMK AO2 TSB0456 OCNL LTGICCGCA OHD-S-W TS OHD-S-W MOV E P0010 T01890172
KATL 220456Z 24007KT 9SM -TSRA SCT008CB BKN060 BKN100 OVC200 20/18 A3005 RMK AO2 TSB56 OCNL LTGICCG SW-W TS SW-W MOV E P0000 T02000183
KATL 220452Z COR 23008KT 9SM -RA SCT008CB BKN060 BKN100 OVC200 20/18 A3005 RMK AO2 RAB27 SLP169 LTG DSNT SW CB W DSNT NE SW MOV E P0000 T02000183 402500150
KATL 220352Z 23008KT 10SM FEW012 SCT090 BKN180 BKN250 19/18 A3007 RMK AO2 SLP176 LTG DSNT N-NE T01940178

METAR Board
Radar Display
Forecast Discussion
For situational awareness. Not to be used for flight planning purposes.